Time;durP1;ratioP1;P1;durP2;ratioP2;P2;SDS_P1;SDS_P2;PMS_P1;PMS_P2;Temp;Humidity;BMP_temperature;BMP_pressure;BME280_temperature;BME280_humidity;BME280_pressure;Samples;Min_cycle;Max_cycle;Signal;HPM_P1;HPM_P2
2020/12/14 00:00:59;;;;;;;8.25;4.70;;;;;;;2.81;90.54;98533.91;5021507;28;20055;-75
2020/12/14 00:03:24;;;;;;;10.27;5.13;;;;;;;2.87;90.23;98540.44;5014651;28;20686;-75
2020/12/14 00:05:49;;;;;;;8.02;5.18;;;;;;;2.84;90.43;98533.56;5014241;28;20116;-75
2020/12/14 00:08:14;;;;;;;11.18;5.63;;;;;;;2.82;90.79;98523.03;5006270;28;20022;-76
2020/12/14 00:10:40;;;;;;;10.23;6.32;;;;;;;2.63;90.96;98507.28;5012409;28;20038;-74
2020/12/14 00:13:05;;;;;;;14.25;7.00;;;;;;;2.59;91.49;98505.91;5014186;28;20071;-76
2020/12/14 00:15:30;;;;;;;9.93;5.82;;;;;;;2.47;91.39;98504.53;5013839;28;20048;-75
2020/12/14 00:17:55;;;;;;;11.18;5.32;;;;;;;2.29;91.52;98485.91;5013996;28;20036;-74
2020/12/14 00:20:21;;;;;;;11.00;5.65;;;;;;;2.29;91.92;98492.06;5013888;28;20033;-76
2020/12/14 00:22:46;;;;;;;15.02;6.22;;;;;;;2.24;91.33;98483.69;5014357;28;20091;-75
2020/12/14 00:25:11;;;;;;;11.85;6.75;;;;;;;2.23;91.89;98494.53;5013904;28;20029;-76
2020/12/14 00:27:37;;;;;;;10.40;5.72;;;;;;;2.21;91.77;98484.03;5013594;28;20122;-76
2020/12/14 00:30:03;;;;;;;9.23;5.85;;;;;;;2.16;92.26;98503.16;5031464;28;20064;-74
2020/12/14 00:32:28;;;;;;;9.02;5.35;;;;;;;2.09;92.41;98501.28;5014893;28;20036;-75
2020/12/14 00:34:54;;;;;;;10.90;5.97;;;;;;;2.34;92.26;98489.78;5014401;28;20398;-76
2020/12/14 00:37:19;;;;;;;9.90;5.70;;;;;;;2.32;91.86;98507.78;5013450;28;20036;-75
2020/12/14 00:39:45;;;;;;;8.88;5.60;;;;;;;2.27;91.51;98499.41;5014999;28;20056;-74
2020/12/14 00:42:10;;;;;;;13.57;6.15;;;;;;;2.26;91.47;98516.41;5035936;28;20037;-74
2020/12/14 00:44:35;;;;;;;9.35;5.55;;;;;;;2.32;91.34;98497.09;5035861;28;20028;-75
2020/12/14 00:47:01;;;;;;;15.90;6.00;;;;;;;2.35;91.12;98527.97;5014227;28;20036;-74
2020/12/14 00:49:26;;;;;;;8.93;5.25;;;;;;;2.22;91.15;98541.75;5033083;28;20040;-75
2020/12/14 00:51:51;;;;;;;9.45;5.28;;;;;;;2.19;91.50;98563.41;5006563;28;20120;-75
2020/12/14 00:54:16;;;;;;;9.20;5.45;;;;;;;2.03;91.68;98563.28;5017390;28;20144;-74
2020/12/14 00:56:42;;;;;;;11.00;6.25;;;;;;;1.94;92.22;98584.56;5020790;28;20037;-76
2020/12/14 00:59:07;;;;;;;10.00;5.75;;;;;;;1.72;92.23;98559.19;5034634;28;20059;-75
2020/12/14 01:01:33;;;;;;;10.05;5.05;;;;;;;1.70;92.46;98571.00;5017610;28;20087;-74
2020/12/14 01:03:58;;;;;;;12.10;5.72;;;;;;;1.64;92.33;98572.44;5017256;28;20033;-75
2020/12/14 01:06:24;;;;;;;10.15;5.97;;;;;;;1.84;93.23;98564.31;5034321;28;20033;-75
2020/12/14 01:08:50;;;;;;;12.52;6.38;;;;;;;1.93;92.93;98571.38;5017226;28;20037;-75
2020/12/14 01:11:15;;;;;;;13.18;5.97;;;;;;;2.12;92.77;98570.34;5028145;28;20029;-75
2020/12/14 01:13:40;;;;;;;15.23;6.82;;;;;;;2.05;92.08;98559.47;5003576;28;20601;-75
2020/12/14 01:16:08;;;;;;;15.52;7.18;;;;;;;2.10;91.98;98543.00;5015198;28;20035;-75
2020/12/14 01:18:37;;;;;;;11.98;5.30;;;;;;;2.40;91.02;98534.50;5034996;28;20033;-75
2020/12/14 01:21:06;;;;;;;12.68;6.28;;;;;;;2.54;89.90;98522.44;5035707;28;20391;-75
2020/12/14 01:23:31;;;;;;;11.82;5.93;;;;;;;2.68;89.68;98518.31;5034560;28;20510;-75
2020/12/14 01:25:57;;;;;;;11.02;5.28;;;;;;;2.79;88.98;98503.81;5021319;28;20021;-74
2020/12/14 01:28:22;;;;;;;12.35;4.82;;;;;;;2.81;88.08;98494.66;5018905;28;20028;-74
2020/12/14 01:30:48;;;;;;;10.98;5.38;;;;;;;2.93;88.30;98507.72;5036575;28;20383;-73
2020/12/14 01:33:13;;;;;;;11.10;5.28;;;;;;;3.00;87.70;98517.59;5036620;28;20032;-73
2020/12/14 01:35:38;;;;;;;11.48;5.10;;;;;;;3.19;87.20;98526.31;5036014;28;21728;-73
2020/12/14 01:38:04;;;;;;;10.07;5.22;;;;;;;3.04;87.62;98528.81;5036614;28;20029;-76
2020/12/14 01:40:30;;;;;;;12.18;5.75;;;;;;;3.06;87.71;98535.63;5020858;28;20086;-75
2020/12/14 01:42:55;;;;;;;10.93;4.85;;;;;;;3.09;87.08;98547.84;5014825;28;20457;-74
2020/12/14 01:45:21;;;;;;;8.10;4.80;;;;;;;3.10;87.52;98565.56;5013202;28;20424;-74
2020/12/14 01:47:49;;;;;;;9.88;5.20;;;;;;;3.24;87.06;98572.94;5035715;28;20041;-75
2020/12/14 01:50:15;;;;;;;10.73;4.97;;;;;;;3.24;87.06;98559.59;5014743;28;20048;-74
2020/12/14 01:52:42;;;;;;;9.20;4.95;;;;;;;3.17;87.07;98537.19;5035179;28;20491;-74
2020/12/14 01:55:11;;;;;;;8.50;4.80;;;;;;;3.17;86.82;98536.34;5017288;28;20506;-74
2020/12/14 01:57:37;;;;;;;11.90;5.35;;;;;;;3.11;87.37;98529.81;5035071;28;20029;-74
2020/12/14 02:00:05;;;;;;;11.30;5.50;;;;;;;2.94;87.04;98509.41;5035225;28;20566;-74
2020/12/14 02:02:31;;;;;;;10.75;5.63;;;;;;;3.07;87.08;98520.47;5017354;28;20036;-75
2020/12/14 02:04:56;;;;;;;11.25;6.13;;;;;;;3.11;86.41;98532.47;5017544;28;20022;-74
2020/12/14 02:07:24;;;;;;;11.75;5.85;;;;;;;3.09;86.56;98515.75;5035242;28;20585;-73
2020/12/14 02:09:53;;;;;;;12.52;6.13;;;;;;;2.98;86.95;98506.22;5019228;28;20025;-75
2020/12/14 02:12:21;;;;;;;10.17;5.13;;;;;;;3.07;86.57;98515.13;5034207;28;20043;-75
2020/12/14 02:14:47;;;;;;;10.80;5.13;;;;;;;3.08;86.59;98508.75;5035921;28;20295;-74
2020/12/14 02:17:18;;;;;;;10.20;5.25;;;;;;;2.98;87.17;98516.06;5033570;28;20025;-75
2020/12/14 02:19:44;;;;;;;10.25;5.85;;;;;;;2.96;86.75;98526.94;5033053;28;20395;-75
2020/12/14 02:22:09;;;;;;;10.13;5.65;;;;;;;2.90;87.77;98538.25;5034244;28;20030;-75
2020/12/14 02:24:34;;;;;;;10.60;5.25;;;;;;;2.63;88.23;98520.63;5032975;28;20052;-75
2020/12/14 02:27:00;;;;;;;10.77;5.88;;;;;;;2.39;89.53;98524.84;5033570;28;20029;-75
2020/12/14 02:29:26;;;;;;;10.65;5.88;;;;;;;2.25;89.96;98514.72;5034230;28;20471;-75
2020/12/14 02:31:51;;;;;;;11.95;6.13;;;;;;;2.13;89.88;98498.16;5033932;28;20036;-76
2020/12/14 02:34:16;;;;;;;10.10;5.45;;;;;;;2.30;89.85;98507.09;5032835;28;20029;-76
2020/12/14 02:36:42;;;;;;;9.70;5.43;;;;;;;2.27;89.82;98494.06;5033069;28;20048;-75
2020/12/14 02:39:07;;;;;;;11.07;5.75;;;;;;;2.33;90.20;98489.91;5033662;28;20104;-76
2020/12/14 02:41:33;;;;;;;10.23;6.05;;;;;;;2.31;90.17;98518.63;5031801;28;20045;-76
2020/12/14 02:43:58;;;;;;;10.15;5.05;;;;;;;2.18;89.65;98503.03;5032638;28;20029;-76
2020/12/14 02:46:23;;;;;;;11.88;5.65;;;;;;;2.11;90.90;98517.97;5032276;28;20071;-76
2020/12/14 02:48:49;;;;;;;11.07;5.00;;;;;;;2.00;90.86;98494.25;5018083;28;20049;-76
2020/12/14 02:51:18;;;;;;;10.75;5.90;;;;;;;2.04;91.18;98506.25;5031501;28;20088;-76
2020/12/14 02:53:44;;;;;;;9.52;5.32;;;;;;;2.02;91.24;98498.44;5031718;28;20520;-76
2020/12/14 02:56:09;;;;;;;10.25;5.40;;;;;;;2.06;90.73;98489.09;5032747;28;20033;-76
2020/12/14 02:58:34;;;;;;;10.20;5.22;;;;;;;2.05;91.06;98495.44;5046828;28;20398;-76
2020/12/14 03:00:59;;;;;;;11.65;6.20;;;;;;;2.10;90.47;98501.16;5048813;28;20487;-76
2020/12/14 03:03:25;;;;;;;11.60;5.43;;;;;;;1.95;91.04;98479.53;5030678;28;20391;-75
2020/12/14 03:05:50;;;;;;;10.38;5.38;;;;;;;2.02;90.99;98489.56;5024355;28;20044;-77
2020/12/14 03:08:16;;;;;;;9.13;5.10;;;;;;;2.00;90.72;98481.72;5031906;28;20048;-75
2020/12/14 03:10:41;;;;;;;10.32;5.70;;;;;;;1.96;91.02;98480.34;5032299;28;20028;-75
2020/12/14 03:13:06;;;;;;;10.63;5.65;;;;;;;1.95;91.00;98452.84;5031018;28;20548;-76
2020/12/14 03:15:31;;;;;;;7.82;4.88;;;;;;;2.07;90.65;98466.78;5031360;28;20037;-76
2020/12/14 03:17:57;;;;;;;7.55;4.50;;;;;;;2.15;89.74;98452.66;5044179;28;20033;-76
2020/12/14 03:20:22;;;;;;;7.93;4.55;;;;;;;2.22;89.36;98452.81;5026731;28;20400;-75
2020/12/14 03:22:47;;;;;;;9.05;4.00;;;;;;;2.23;89.26;98452.69;5025491;28;20029;-75
2020/12/14 03:25:12;;;;;;;6.55;3.92;;;;;;;2.31;89.24;98455.38;5026540;28;20407;-75
2020/12/14 03:27:38;;;;;;;9.15;3.97;;;;;;;2.25;88.75;98447.16;5035519;28;20029;-75
2020/12/14 03:30:04;;;;;;;6.07;3.72;;;;;;;2.27;88.74;98448.69;5029977;28;20026;-75
2020/12/14 03:32:30;;;;;;;7.93;3.67;;;;;;;2.30;88.47;98445.69;5031936;28;20028;-76
2020/12/14 03:34:55;;;;;;;7.72;4.15;;;;;;;2.37;87.86;98456.56;5033038;28;20037;-75
2020/12/14 03:37:20;;;;;;;7.80;4.28;;;;;;;2.07;89.02;98466.78;5032357;28;20545;-75
2020/12/14 03:39:46;;;;;;;8.65;4.63;;;;;;;1.89;89.62;98490.00;5040783;28;20025;-75
2020/12/14 03:42:11;;;;;;;12.70;4.90;;;;;;;1.69;90.46;98470.66;5032016;28;20462;-75
2020/12/14 03:44:36;;;;;;;8.23;4.50;;;;;;;1.85;90.48;98484.13;5031070;28;20033;-75
2020/12/14 03:47:01;;;;;;;8.18;4.65;;;;;;;1.77;90.35;98468.06;5031351;28;20127;-75
2020/12/14 03:49:27;;;;;;;8.65;4.40;;;;;;;1.69;91.04;98468.84;5029888;28;20022;-75
2020/12/14 03:51:52;;;;;;;7.80;4.80;;;;;;;1.62;91.28;98464.28;5032273;28;20029;-75
2020/12/14 03:54:21;;;;;;;6.85;4.10;;;;;;;1.71;91.01;98476.69;5031715;28;20029;-76
2020/12/14 03:56:47;;;;;;;8.18;3.97;;;;;;;1.76;90.86;98474.41;5031850;28;20475;-76
2020/12/14 03:59:12;;;;;;;8.00;4.45;;;;;;;1.76;91.08;98469.06;5027918;28;20029;-75
2020/12/14 04:01:37;;;;;;;6.57;3.78;;;;;;;1.66;91.17;98457.66;5031433;28;20033;-75
2020/12/14 04:04:02;;;;;;;7.40;4.30;;;;;;;1.65;91.00;98467.50;5033028;28;20033;-75
2020/12/14 04:06:28;;;;;;;7.20;3.90;;;;;;;1.52;91.52;98451.88;5029552;28;20029;-75
2020/12/14 04:08:54;;;;;;;8.50;4.43;;;;;;;1.57;91.54;98467.41;5030750;28;20029;-75
2020/12/14 04:11:19;;;;;;;6.63;3.65;;;;;;;1.62;90.79;98459.78;5031989;28;20496;-76
2020/12/14 04:13:46;;;;;;;7.43;4.10;;;;;;;1.61;91.13;98467.94;5030722;28;20017;-75
2020/12/14 04:16:12;;;;;;;7.75;3.90;;;;;;;1.68;90.83;98482.34;5030551;28;20021;-75
2020/12/14 04:18:37;;;;;;;7.35;4.35;;;;;;;1.54;90.94;98486.38;5031525;28;20029;-75
2020/12/14 04:21:04;;;;;;;7.30;3.75;;;;;;;1.53;91.48;98493.53;5013223;28;20064;-76
2020/12/14 04:23:29;;;;;;;6.70;3.67;;;;;;;1.37;91.23;98492.56;5031672;28;20022;-75
2020/12/14 04:25:55;;;;;;;7.20;3.67;;;;;;;1.26;91.64;98483.81;5031040;28;20032;-75
2020/12/14 04:28:20;;;;;;;5.72;3.53;;;;;;;1.48;91.71;98481.66;5009885;28;20026;-75
2020/12/14 04:30:45;;;;;;;5.80;3.33;;;;;;;1.42;91.47;98475.13;5012862;28;20014;-75
2020/12/14 04:33:11;;;;;;;5.85;3.40;;;;;;;1.56;91.50;98491.56;5028280;28;20021;-74
2020/12/14 04:35:36;;;;;;;6.75;3.47;;;;;;;1.48;91.15;98465.66;5013720;28;20394;-75
2020/12/14 04:38:01;;;;;;;5.03;3.38;;;;;;;1.56;91.35;98479.06;5031929;28;20033;-75
2020/12/14 04:40:28;;;;;;;7.68;3.28;;;;;;;1.68;91.15;98485.00;5031801;28;20503;-75
2020/12/14 04:42:56;;;;;;;6.38;3.60;;;;;;;1.64;90.55;98494.28;5031249;28;20033;-74
2020/12/14 04:45:24;;;;;;;6.93;3.35;;;;;;;1.57;90.69;98490.56;5013804;28;20079;-74
2020/12/14 04:47:49;;;;;;;7.53;3.67;;;;;;;1.58;91.05;98492.25;5013296;28;20033;-75
2020/12/14 04:50:16;;;;;;;8.93;4.07;;;;;;;1.64;90.56;98494.28;5007582;28;20032;-74
2020/12/14 04:52:41;;;;;;;9.25;4.30;;;;;;;1.58;90.17;98470.91;5000872;28;20495;-75
2020/12/14 04:55:07;;;;;;;8.73;4.28;;;;;;;1.58;90.18;98471.75;5019393;28;20108;-73
2020/12/14 04:57:32;;;;;;;7.68;4.13;;;;;;;1.61;90.21;98471.44;5030173;28;20030;-75
2020/12/14 04:59:58;;;;;;;6.35;3.78;;;;;;;1.55;89.86;98472.06;5012426;28;20026;-75
2020/12/14 05:02:23;;;;;;;7.22;3.83;;;;;;;1.44;90.01;98459.81;5013867;28;20475;-74
2020/12/14 05:04:48;;;;;;;7.18;3.80;;;;;;;1.52;90.25;98480.38;5025255;28;20033;-74
2020/12/14 05:07:15;;;;;;;8.60;4.00;;;;;;;1.36;90.24;98481.03;5030628;28;20034;-74
2020/12/14 05:09:41;;;;;;;6.93;3.45;;;;;;;1.26;90.37;98477.66;5030264;28;20025;-79
2020/12/14 05:12:21;;;;;;;8.18;4.63;;;;;;;1.22;90.75;98477.09;5030464;28;20025;-79
2020/12/14 05:14:47;;;;;;;8.18;4.32;;;;;;;1.15;90.61;98472.53;5030933;28;20030;-78
2020/12/14 05:17:24;;;;;;;7.80;3.90;;;;;;;1.14;90.58;98495.66;5036119;28;20029;-81
2020/12/14 05:19:50;;;;;;;8.82;4.88;;;;;;;1.06;90.85;98499.09;5034351;28;20075;-79
2020/12/14 05:22:17;;;;;;;11.40;5.10;;;;;;;0.87;90.86;98469.94;5033453;28;20026;-77
2020/12/14 05:24:48;;;;;;;9.05;4.80;;;;;;;0.94;91.52;98486.97;5031371;28;20029;-76
2020/12/14 05:27:29;;;;;;;9.68;4.78;;;;;;;0.93;91.24;98476.47;5043850;28;20026;-77
2020/12/14 05:29:56;;;;;;;6.90;4.07;;;;;;;0.94;91.28;98478.97;5033195;28;20046;-77
2020/12/14 05:32:21;;;;;;;8.52;4.57;;;;;;;0.83;91.25;98474.69;5040961;28;20025;-78
2020/12/14 05:34:47;;;;;;;9.07;5.07;;;;;;;0.76;91.92;98481.63;5040555;28;20052;-75
2020/12/14 05:37:15;;;;;;;6.90;4.05;;;;;;;0.83;91.70;98485.34;5038211;28;20232;-79
2020/12/14 05:39:42;;;;;;;7.72;3.97;;;;;;;0.78;91.75;98481.47;5040010;28;20033;-74
2020/12/14 05:42:18;;;;;;;9.38;4.65;;;;;;;0.74;91.84;98485.44;5035651;28;20080;-74
2020/12/14 05:44:48;;;;;;;7.93;4.30;;;;;;;0.69;92.07;98499.19;5046314;28;20092;-70
2020/12/14 05:47:29;;;;;;;8.50;4.82;;;;;;;0.67;92.50;98487.00;5049428;28;20029;-74
2020/12/14 05:49:58;;;;;;;7.57;4.03;;;;;;;0.75;92.75;98485.25;5047458;28;20017;-76
2020/12/14 05:52:35;;;;;;;9.57;4.90;;;;;;;0.81;92.69;98475.81;5051411;28;20039;-72
2020/12/14 05:55:01;;;;;;;8.63;4.75;;;;;;;0.88;92.57;98485.75;5048467;28;20025;-74
2020/12/14 05:57:27;;;;;;;9.60;4.70;;;;;;;0.84;92.19;98484.38;5047206;28;20112;-74
2020/12/14 05:59:57;;;;;;;7.22;4.45;;;;;;;0.88;92.01;98479.56;5041923;28;20099;-75
2020/12/14 06:02:25;;;;;;;8.80;4.43;;;;;;;0.92;91.54;98478.31;5041630;28;20075;-80
2020/12/14 06:04:57;;;;;;;8.38;4.80;;;;;;;0.93;91.37;98484.47;5033530;28;20086;-78
2020/12/14 06:07:27;;;;;;;10.40;6.00;;;;;;;0.91;91.38;98494.41;5041163;28;20021;-76
2020/12/14 06:10:10;;;;;;;10.05;4.22;;;;;;;0.92;91.63;98480.09;5043925;28;20020;-75
2020/12/14 06:12:42;;;;;;;7.72;4.60;;;;;;;0.95;91.38;98486.00;5040247;28;20033;-74
2020/12/14 06:15:13;;;;;;;7.13;3.78;;;;;;;0.88;91.71;98464.44;5038078;28;20399;-78
2020/12/14 06:17:39;;;;;;;6.53;3.58;;;;;;;0.82;91.54;98470.38;5049399;28;20025;-80
2020/12/14 06:20:07;;;;;;;5.82;3.28;;;;;;;1.03;91.90;98491.41;5055505;28;20029;-79
2020/12/14 06:22:34;;;;;;;7.07;3.65;;;;;;;0.98;91.08;98469.69;5049796;28;20029;-77
2020/12/14 06:25:03;;;;;;;4.55;2.75;;;;;;;1.09;91.61;98495.28;5050184;28;20048;-77
2020/12/14 06:27:35;;;;;;;5.72;3.20;;;;;;;1.05;91.49;98486.75;5052174;28;20024;-80
2020/12/14 06:30:00;;;;;;;5.63;3.28;;;;;;;0.92;91.39;98485.44;5047127;28;20022;-79
2020/12/14 06:32:40;;;;;;;6.28;3.08;;;;;;;1.01;91.18;98479.22;5049123;28;20099;-77
2020/12/14 06:35:13;;;;;;;6.07;3.38;;;;;;;1.05;91.02;98486.75;5045962;28;20025;-75
2020/12/14 06:37:52;;;;;;;6.72;3.70;;;;;;;1.13;91.14;98487.81;5046993;28;20025;-72
2020/12/14 06:40:19;;;;;;;4.95;2.70;;;;;;;1.33;90.52;98477.84;5048021;28;20029;-77
2020/12/14 06:42:46;;;;;;;5.50;2.75;;;;;;;1.46;90.09;98488.97;5050694;28;20021;-79
2020/12/14 06:45:14;;;;;;;5.30;3.17;;;;;;;1.45;89.69;98477.47;5049365;28;20657;-76
2020/12/14 06:47:43;;;;;;;8.90;3.70;;;;;;;1.40;90.35;98495.75;5048288;28;20018;-72
2020/12/14 06:50:21;;;;;;;5.45;3.10;;;;;;;1.27;90.40;98498.78;5048902;28;20426;-78
2020/12/14 06:52:48;;;;;;;6.07;3.55;;;;;;;1.12;90.55;98494.97;5051065;28;20025;-77
2020/12/14 06:55:14;;;;;;;6.85;4.10;;;;;;;1.05;90.96;98492.09;5050306;28;20040;-78
2020/12/14 06:57:40;;;;;;;5.43;3.85;;;;;;;1.00;90.79;98462.41;5050373;28;20101;-77
2020/12/14 07:00:06;;;;;;;6.72;3.83;;;;;;;1.14;90.95;98497.50;5047080;28;20459;-71
2020/12/14 07:02:39;;;;;;;6.30;3.67;;;;;;;1.20;90.91;98496.88;5045278;28;20159;-73
2020/12/14 07:05:30;;;;;;;9.63;4.03;;;;;;;1.22;90.43;98498.41;5035625;28;20080;-72
2020/12/14 07:07:57;;;;;;;11.25;4.40;;;;;;;1.43;90.27;98507.94;5014724;28;20056;-70
2020/12/14 07:10:24;;;;;;;10.30;3.83;;;;;;;1.42;89.82;98499.13;5024844;28;20029;-69
2020/12/14 07:12:51;;;;;;;9.25;4.18;;;;;;;1.48;89.90;98503.81;5031389;28;20028;-69
2020/12/14 07:15:27;;;;;;;7.90;4.75;;;;;;;1.57;89.81;98499.38;5031582;28;20378;-70
2020/12/14 07:18:09;;;;;;;8.32;4.68;;;;;;;1.62;89.21;98509.59;5031166;28;20399;-72
2020/12/14 07:20:44;;;;;;;8.82;4.60;;;;;;;1.74;89.15;98508.38;5032261;28;20540;-69
2020/12/14 07:23:09;;;;;;;7.20;3.50;;;;;;;1.78;89.04;98504.41;5033464;28;20056;-70
2020/12/14 07:25:35;;;;;;;6.15;2.80;;;;;;;1.85;88.58;98521.47;5032648;28;20479;-71
2020/12/14 07:28:02;;;;;;;7.15;2.80;;;;;;;1.91;88.60;98514.66;5032416;28;20017;-71
2020/12/14 07:30:28;;;;;;;5.68;3.35;;;;;;;1.91;88.08;98514.66;5032366;28;20021;-70
2020/12/14 07:32:53;;;;;;;7.60;3.45;;;;;;;1.75;88.46;98512.72;5032213;28;20036;-73
2020/12/14 07:35:19;;;;;;;6.38;3.45;;;;;;;1.72;88.45;98507.69;5030981;28;20029;-78
2020/12/14 07:37:44;;;;;;;11.38;3.97;;;;;;;1.70;88.39;98517.66;5020434;28;20391;-75
2020/12/14 07:40:10;;;;;;;7.28;3.75;;;;;;;1.76;89.32;98527.75;5032530;28;20033;-69
2020/12/14 07:42:37;;;;;;;10.15;4.57;;;;;;;1.84;88.57;98530.47;5032627;28;20022;-75
2020/12/14 07:45:20;;;;;;;7.63;4.70;;;;;;;1.83;88.26;98528.78;5032135;28;20237;-77
2020/12/14 07:47:48;;;;;;;7.20;3.90;;;;;;;1.67;88.24;98509.97;5013317;28;20053;-74
2020/12/14 07:50:22;;;;;;;6.93;4.20;;;;;;;1.78;88.06;98532.91;5032490;28;20017;-74
2020/12/14 07:52:53;;;;;;;8.38;4.38;;;;;;;1.85;87.78;98537.47;5014779;28;20475;-74
2020/12/14 07:55:19;;;;;;;7.07;3.92;;;;;;;1.77;88.36;98526.72;5025514;28;20076;-74
2020/12/14 07:57:46;;;;;;;7.47;4.18;;;;;;;1.95;87.90;98518.72;5016638;28;20029;-77
2020/12/14 08:00:20;;;;;;;6.10;3.88;;;;;;;2.09;87.40;98528.81;5022736;28;20028;-73
2020/12/14 08:02:45;;;;;;;7.28;4.35;;;;;;;2.09;87.42;98523.47;5029154;28;20079;-74
2020/12/14 08:05:13;;;;;;;8.85;4.60;;;;;;;2.11;87.06;98534.00;5030929;28;20021;-71
2020/12/14 08:07:51;;;;;;;16.33;6.55;;;;;;;2.26;86.85;98527.09;5029201;28;20025;-72
2020/12/14 08:10:19;;;;;;;17.08;6.45;;;;;;;2.40;86.47;98533.69;5009923;28;20505;-72
2020/12/14 08:12:45;;;;;;;10.82;5.00;;;;;;;2.58;85.96;98536.28;5032334;28;20040;-74
2020/12/14 08:15:16;;;;;;;8.20;3.90;;;;;;;2.73;85.80;98542.72;5030943;28;20483;-73
2020/12/14 08:17:43;;;;;;;7.25;4.28;;;;;;;2.75;85.49;98522.03;5031131;28;20029;-75
2020/12/14 08:20:25;;;;;;;5.55;3.25;;;;;;;2.95;85.14;98540.47;5031099;28;20391;-75
2020/12/14 08:22:50;;;;;;;5.13;3.20;;;;;;;2.98;84.16;98530.28;5029988;28;20057;-73
2020/12/14 08:25:21;;;;;;;5.70;3.08;;;;;;;3.10;83.61;98538.84;5031350;28;20056;-71
2020/12/14 08:27:57;;;;;;;4.72;2.45;;;;;;;3.23;83.76;98527.69;5031944;28;20053;-76
2020/12/14 08:30:25;;;;;;;5.60;2.78;;;;;;;3.59;82.68;98522.91;5030750;28;20017;-71
2020/12/14 08:33:12;;;;;;;4.45;2.72;;;;;;;4.77;78.09;98538.50;5032052;28;20025;-75
2020/12/14 08:35:40;;;;;;;3.13;2.08;;;;;;;6.36;73.60;98529.91;5035353;28;20070;-76
2020/12/14 08:38:12;;;;;;;4.90;2.38;;;;;;;8.07;66.93;98510.63;5031387;28;20025;-76
2020/12/14 08:40:38;;;;;;;4.25;2.88;;;;;;;8.97;64.20;98514.38;5025835;28;20028;-74
2020/12/14 08:43:07;;;;;;;4.45;2.17;;;;;;;9.48;61.98;98504.16;5030174;28;20056;-76
2020/12/14 08:45:33;;;;;;;3.42;2.03;;;;;;;9.62;61.29;98498.59;5031961;28;20511;-76
2020/12/14 08:47:59;;;;;;;4.28;2.10;;;;;;;9.54;61.32;98498.81;5032099;28;20079;-76
2020/12/14 08:50:25;;;;;;;4.40;2.28;;;;;;;9.78;60.34;98493.84;5032906;28;20052;-79
2020/12/14 08:53:03;;;;;;;3.33;2.10;;;;;;;10.15;58.78;98499.69;5030685;28;20444;-75
2020/12/14 08:55:38;;;;;;;2.92;2.25;;;;;;;11.14;57.40;98504.13;5031619;28;20032;-73
2020/12/14 08:58:04;;;;;;;3.72;2.40;;;;;;;11.88;55.04;98500.00;5032219;28;20029;-78
2020/12/14 09:00:30;;;;;;;3.38;1.92;;;;;;;11.74;54.88;98493.81;5031659;28;20521;-75
2020/12/14 09:03:00;;;;;;;5.97;2.58;;;;;;;11.41;55.41;98499.41;5033706;28;20025;-77
2020/12/14 09:05:25;;;;;;;3.50;2.28;;;;;;;11.51;56.33;98499.78;5034658;28;20026;-73
2020/12/14 09:07:50;;;;;;;3.10;2.00;;;;;;;11.16;55.56;98497.44;5022690;28;20026;-73
2020/12/14 09:10:26;;;;;;;2.75;2.00;;;;;;;10.67;57.32;98498.84;5026554;28;20028;-74
2020/12/14 09:13:02;;;;;;;4.32;2.13;;;;;;;10.78;57.51;98499.25;5035758;28;20021;-76
2020/12/14 09:15:30;;;;;;;2.35;1.85;;;;;;;10.70;57.26;98500.28;5035205;28;20029;-76
2020/12/14 09:18:04;;;;;;;3.72;2.17;;;;;;;10.25;58.71;98519.88;5026031;28;20068;-76
2020/12/14 09:20:29;;;;;;;3.10;1.90;;;;;;;10.36;57.88;98510.31;5032309;28;20043;-72
2020/12/14 09:22:54;;;;;;;3.53;1.88;;;;;;;10.80;57.30;98525.03;5016813;28;20387;-76
2020/12/14 09:25:20;;;;;;;3.20;2.10;;;;;;;11.01;56.87;98531.25;5034121;28;20467;-74
2020/12/14 09:27:45;;;;;;;3.47;2.35;;;;;;;11.03;57.00;98505.63;5034405;28;20036;-77
2020/12/14 09:30:10;;;;;;;5.72;2.30;;;;;;;11.09;56.71;98523.72;5020250;28;20029;-75
2020/12/14 09:32:36;;;;;;;3.60;2.17;;;;;;;11.15;56.57;98517.44;5034448;28;20033;-76
2020/12/14 09:35:01;;;;;;;3.08;2.15;;;;;;;11.68;55.01;98516.34;5029055;28;20048;-80
2020/12/14 09:37:26;;;;;;;3.50;2.30;;;;;;;11.51;55.43;98524.16;5022737;28;20029;-77
2020/12/14 09:39:52;;;;;;;3.67;2.50;;;;;;;11.68;55.06;98531.78;5021438;28;20045;-76
2020/12/14 09:42:18;;;;;;;5.60;2.22;;;;;;;12.03;54.53;98533.06;5035262;28;20087;-79
2020/12/14 09:44:43;;;;;;;3.53;2.28;;;;;;;12.37;52.90;98525.50;5023397;28;20072;-79
2020/12/14 09:47:09;;;;;;;3.58;2.45;;;;;;;12.03;54.28;98524.09;5022108;28;20053;-78
2020/12/14 09:49:35;;;;;;;3.20;2.13;;;;;;;11.36;55.97;98523.59;5035053;28;20052;-76
2020/12/14 09:52:00;;;;;;;3.88;2.30;;;;;;;11.34;55.58;98525.69;5021958;28;20430;-75
2020/12/14 09:54:26;;;;;;;3.40;2.08;;;;;;;12.22;52.87;98528.53;5017376;28;20026;-77
2020/12/14 09:56:52;;;;;;;2.63;1.92;;;;;;;12.02;53.76;98525.94;5035119;28;20028;-78
2020/12/14 09:59:18;;;;;;;3.35;2.13;;;;;;;11.22;55.70;98530.97;5025282;28;20021;-76
2020/12/14 10:01:45;;;;;;;4.13;2.40;;;;;;;11.11;56.35;98516.22;5033868;28;20067;-75
2020/12/14 10:04:10;;;;;;;3.53;2.17;;;;;;;11.74;54.49;98515.50;5025717;28;20028;-76
2020/12/14 10:06:35;;;;;;;3.30;2.10;;;;;;;12.17;53.89;98530.22;5016135;28;20422;-77
2020/12/14 10:09:01;;;;;;;3.47;2.20;;;;;;;13.75;49.95;98516.03;5019367;28;20414;-78
2020/12/14 10:11:27;;;;;;;4.50;2.50;;;;;;;14.39;48.64;98515.47;5022052;28;20025;-77
2020/12/14 10:13:55;;;;;;;3.75;2.45;;;;;;;12.43;52.78;98526.47;5034094;28;20053;-76
2020/12/14 10:16:21;;;;;;;4.13;2.60;;;;;;;11.37;54.79;98520.69;5029054;28;20085;-78
2020/12/14 10:18:46;;;;;;;3.25;2.45;;;;;;;10.78;56.45;98515.47;5035055;28;20068;-81
2020/12/14 10:21:12;;;;;;;4.13;2.70;;;;;;;9.95;59.56;98532.09;5028283;28;20021;-72
2020/12/14 10:23:37;;;;;;;4.55;2.88;;;;;;;9.24;61.57;98509.06;5033516;28;20111;-74
2020/12/14 10:26:03;;;;;;;5.28;2.78;;;;;;;9.25;61.55;98526.97;5033853;28;20368;-75
2020/12/14 10:28:28;;;;;;;6.25;3.13;;;;;;;8.88;61.84;98520.13;5029414;28;20057;-75
2020/12/14 10:30:54;;;;;;;4.40;2.85;;;;;;;8.89;62.48;98522.63;5034306;28;20025;-76
2020/12/14 10:33:19;;;;;;;4.90;3.38;;;;;;;8.52;63.65;98513.91;5016615;28;20025;-76
2020/12/14 10:35:46;;;;;;;3.63;2.60;;;;;;;8.25;65.25;98533.56;5016340;28;20108;-72
2020/12/14 10:38:11;;;;;;;4.53;2.63;;;;;;;8.25;65.62;98515.56;5031304;28;20498;-76
2020/12/14 10:40:37;;;;;;;6.18;2.92;;;;;;;8.08;65.78;98512.28;5012920;28;20022;-70
2020/12/14 10:43:02;;;;;;;5.63;2.72;;;;;;;7.49;67.86;98517.94;5029789;28;21449;-74
2020/12/14 10:45:28;;;;;;;5.25;3.35;;;;;;;7.95;66.97;98509.50;5033743;28;20029;-73
2020/12/14 10:47:53;;;;;;;4.63;3.10;;;;;;;7.63;67.35;98498.22;5027950;28;20036;-78
2020/12/14 10:50:19;;;;;;;6.80;3.15;;;;;;;7.57;68.24;98517.84;5033017;28;20391;-75
2020/12/14 10:52:45;;;;;;;5.88;3.63;;;;;;;7.40;68.94;98506.47;5021859;28;20395;-74
2020/12/14 10:55:10;;;;;;;4.03;2.75;;;;;;;7.53;69.09;98511.16;5033212;28;20406;-74
2020/12/14 10:57:36;;;;;;;5.55;3.42;;;;;;;7.51;68.90;98505.13;5039329;28;20024;-78
2020/12/14 11:00:09;;;;;;;4.40;3.45;;;;;;;7.55;68.86;98503.72;5025675;28;20036;-74
2020/12/14 11:02:36;;;;;;;4.03;2.70;;;;;;;7.58;68.67;98503.34;5032476;28;20041;-75
2020/12/14 11:05:04;;;;;;;5.95;3.20;;;;;;;7.44;68.33;98488.06;5032594;28;20025;-74
2020/12/14 11:07:33;;;;;;;5.43;3.13;;;;;;;7.51;68.71;98491.66;5031820;28;20036;-75
2020/12/14 11:09:59;;;;;;;5.00;2.83;;;;;;;7.49;68.57;98482.94;5019567;28;20038;-77
2020/12/14 11:12:26;;;;;;;5.75;3.28;;;;;;;7.31;67.57;98485.22;5034553;28;20118;-75
2020/12/14 11:14:51;;;;;;;4.80;3.10;;;;;;;7.22;67.89;98493.41;5031845;28;20029;-74
2020/12/14 11:17:17;;;;;;;5.00;2.90;;;;;;;7.34;68.39;98472.25;5032292;28;20513;-79
2020/12/14 11:19:42;;;;;;;5.80;3.38;;;;;;;7.41;68.69;98473.16;5032168;28;20025;-75
2020/12/14 11:22:07;;;;;;;5.95;3.00;;;;;;;7.54;67.29;98461.66;5032258;28;20029;-77
2020/12/14 11:24:33;;;;;;;4.60;2.75;;;;;;;7.62;67.30;98476.84;5031501;28;20051;-72
2020/12/14 11:26:58;;;;;;;6.13;2.83;;;;;;;7.57;67.38;98481.97;5031980;28;20021;-72
2020/12/14 11:29:25;;;;;;;4.68;2.92;;;;;;;7.60;68.64;98469.00;5034974;28;20021;-72
2020/12/14 11:31:51;;;;;;;6.32;3.13;;;;;;;7.81;67.73;98483.47;5034600;28;20029;-72
2020/12/14 11:34:17;;;;;;;5.60;3.33;;;;;;;7.98;67.37;98478.63;5032258;28;20086;-72
2020/12/14 11:36:42;;;;;;;4.13;2.70;;;;;;;8.00;67.61;98472.03;5032859;28;20030;-72
2020/12/14 11:39:07;;;;;;;6.05;3.30;;;;;;;8.28;67.36;98473.91;5033721;28;20033;-72